Wervik, Belgium
Current Conditions -  °F | °C
As of 7:30 AM on Saturday 29 Nov 2014 (Local Time) from LFQQ Reporting Station
Clear Clear  
Wind Chill: 38°   Ceiling: Unl
Heat Index: 41°   Visibility: 6mi
Dew Point: 39°   Wind: 5mph
Humidity: 93%   Direction: 80°E
Pressure: 29.85"   Gusts: NA
Location:  50.78°N, 3.04°E
Report Text: LFQQ 290630Z 08004KT CAVOK 05/04 Q1011 NOSIG
Loading
Personal Weather Stations






























Interactive Weather Map New forecast layout! Learn more

10-Day Weather Forecast

Advertisements
Track Severe Weather on mobile